Time;durP1;ratioP1;P1;durP2;ratioP2;P2;SDS_P1;SDS_P2;PMS_P1;PMS_P2;Temp;Humidity;BMP_temperature;BMP_pressure;BME280_temperature;BME280_humidity;BME280_pressure;Samples;Min_cycle;Max_cycle;Signal;HPM_P1;HPM_P2
2024/04/08 00:02:24;;;;;;;;;;;;;;;;;;5927195;24;6838;-88
2024/04/08 00:04:50;;;;;;;;;;;;;;;;;;5950308;24;6951;-88
2024/04/08 00:07:16;;;;;;;;;;;;;;;;;;5904746;24;7018;-88
2024/04/08 00:09:44;;;;;;;;;;;;;;;;;;5950615;24;6971;-88
2024/04/08 00:12:13;;;;;;;;;;;;;;;;;;5950051;24;7126;-88
2024/04/08 00:14:42;;;;;;;;;;;;;;;;;;5950042;24;7036;-88
2024/04/08 00:17:08;;;;;;;;;;;;;;;;;;5927093;24;6966;-88
2024/04/08 00:19:34;;;;;;;;;;;;;;;;;;5927478;24;7001;-88
2024/04/08 00:21:59;;;;;;;;;;;;;;;;;;5927437;24;6955;-88
2024/04/08 00:24:25;;;;;;;;;;;;;;;;;;5950014;24;8119;-88
2024/04/08 00:26:51;;;;;;;;;;;;;;;;;;5927076;24;6947;-88
2024/04/08 00:29:17;;;;;;;;;;;;;;;;;;5949740;24;6962;-88
2024/04/08 00:31:43;;;;;;;;;;;;;;;;;;5927106;24;7014;-88
2024/04/08 00:34:09;;;;;;;;;;;;;;;;;;5927294;24;6810;-89
2024/04/08 00:36:39;;;;;;;;;;;;;;;;;;5927894;24;6968;-89
2024/04/08 00:39:05;;;;;;;;;;;;;;;;;;5904868;24;6812;-88
2024/04/08 00:43:47;;;;;;;;;;;;;;;;;;5466614;26;6816;-89
2024/04/08 00:46:21;;;;;;;;;;;;;;;;;;5370351;26;7065;-89
2024/04/08 00:48:48;;;;;;;;;;;;;;;;;;5400290;26;7070;-89
2024/04/08 00:51:16;;;;;;;;;;;;;;;;;;5399798;26;7103;-89
2024/04/08 00:53:42;;;;;;;;;;;;;;;;;;5399636;26;7042;-89
2024/04/08 00:56:14;;;;;;;;;;;;;;;;;;5399545;26;6979;-89
2024/04/08 00:58:43;;;;;;;;;;;;;;;;;;5399689;26;7130;-89
2024/04/08 01:01:10;;;;;;;;;;;;;;;;;;5399330;26;7159;-89
2024/04/08 01:03:36;;;;;;;;;;;;;;;;;;5399141;26;7185;-89
2024/04/08 01:06:03;;;;;;;;;;;;;;;;;;5399559;26;7138;-89
2024/04/08 01:08:29;;;;;;;;;;;;;;;;;;5399145;26;7989;-90
2024/04/08 01:10:57;;;;;;;;;;;;;;;;;;5399397;26;8131;-89
2024/04/08 01:13:23;;;;;;;;;;;;;;;;;;5429577;26;7118;-89
2024/04/08 01:15:56;;;;;;;;;;;;;;;;;;5399985;26;7169;-91
2024/04/08 01:19:03;;;;;;;;;;;;;;;;;;;;;
2024/04/08 01:30:19;;;;;;;;;;;;;;;;;;5302486;27;7109;-89
2024/04/08 01:41:07;;;;;;;;;;;;;;;;;;5220801;27;6953;-89
2024/04/08 01:48:18;;;;;;;;;;;;;;;;;;5221562;27;6953;-91
2024/04/08 01:51:23;;;;;;;;;;;;;;;;;;5195016;27;6985;-90
2024/04/08 01:53:59;;;;;;;;;;;;;;;;;;5187664;27;7087;-88
2024/04/08 01:56:32;;;;;;;;;;;;;;;;;;5179188;27;7018;-91
2024/04/08 01:59:30;;;;;;;;;;;;;;;;;;5217701;27;7063;-90
2024/04/08 02:02:11;;;;;;;;;;;;;;;;;;5247921;27;6972;-90
2024/04/08 02:04:44;;;;;;;;;;;;;;;;;;5245966;27;7141;-90
2024/04/08 02:07:12;;;;;;;;;;;;;;;;;;5273727;27;7038;-90
2024/04/08 02:09:44;;;;;;;;;;;;;;;;;;5248280;26;7202;-90
2024/04/08 02:12:17;;;;;;;;;;;;;;;;;;5349893;26;6998;-90
2024/04/08 02:14:43;;;;;;;;;;;;;;;;;;5320742;26;7046;-90
2024/04/08 02:17:12;;;;;;;;;;;;;;;;;;5378015;26;6991;-90
2024/04/08 02:19:43;;;;;;;;;;;;;;;;;;5378030;26;7128;-90
2024/04/08 02:22:11;;;;;;;;;;;;;;;;;;5349377;26;7245;-90
2024/04/08 02:24:43;;;;;;;;;;;;;;;;;;5348836;26;7269;-90
2024/04/08 02:27:11;;;;;;;;;;;;;;;;;;5378155;26;7002;-90
2024/04/08 02:29:40;;;;;;;;;;;;;;;;;;5378494;26;7005;-90
2024/04/08 02:32:08;;;;;;;;;;;;;;;;;;5384113;26;7118;-91
2024/04/08 02:34:37;;;;;;;;;;;;;;;;;;5383625;26;6998;-91
2024/04/08 02:37:10;;;;;;;;;;;;;;;;;;5384786;26;7118;-90
2024/04/08 02:39:35;;;;;;;;;;;;;;;;;;5384674;26;7186;-91
2024/04/08 02:42:06;;;;;;;;;;;;;;;;;;5384283;26;7120;-91
2024/04/08 02:44:41;;;;;;;;;;;;;;;;;;5384597;26;7142;-91
2024/04/08 02:47:09;;;;;;;;;;;;;;;;;;5385181;26;7007;-91
2024/04/08 02:49:35;;;;;;;;;;;;;;;;;;5383946;26;7360;-91
2024/04/08 02:52:06;;;;;;;;;;;;;;;;;;5384670;26;7155;-91
2024/04/08 02:54:32;;;;;;;;;;;;;;;;;;5383814;26;7130;-90
2024/04/08 02:57:00;;;;;;;;;;;;;;;;;;5384063;26;7064;-91
2024/04/08 02:59:26;;;;;;;;;;;;;;;;;;5384139;26;7292;-90
2024/04/08 03:01:55;;;;;;;;;;;;;;;;;;5383972;26;7141;-90
2024/04/08 03:04:29;;;;;;;;;;;;;;;;;;5383946;26;7218;-90
2024/04/08 03:06:55;;;;;;;;;;;;;;;;;;5384331;26;7131;-90
2024/04/08 03:09:24;;;;;;;;;;;;;;;;;;5383652;26;7030;-90
2024/04/08 03:11:49;;;;;;;;;;;;;;;;;;5383968;26;7189;-91
2024/04/08 03:14:15;;;;;;;;;;;;;;;;;;5383782;26;7006;-90
2024/04/08 03:16:43;;;;;;;;;;;;;;;;;;5383913;26;7406;-90
2024/04/08 03:19:11;;;;;;;;;;;;;;;;;;5384063;26;7010;-92
2024/04/08 03:21:45;;;;;;;;;;;;;;;;;;5356197;26;7067;-90
2024/04/08 03:24:11;;;;;;;;;;;;;;;;;;5384077;26;7019;-91
2024/04/08 03:26:46;;;;;;;;;;;;;;;;;;5385567;26;7148;-91
2024/04/08 03:29:12;;;;;;;;;;;;;;;;;;5383689;26;7077;-91
2024/04/08 03:31:41;;;;;;;;;;;;;;;;;;5412871;26;7020;-91
2024/04/08 03:34:09;;;;;;;;;;;;;;;;;;5383828;26;7129;-91
2024/04/08 03:36:35;;;;;;;;;;;;;;;;;;5383421;26;7123;-91
2024/04/08 03:39:04;;;;;;;;;;;;;;;;;;5384199;26;7419;-90
2024/04/08 03:41:33;;;;;;;;;;;;;;;;;;5383169;26;7138;-91
2024/04/08 03:43:59;;;;;;;;;;;;;;;;;;5383474;26;7158;-90
2024/04/08 03:46:24;;;;;;;;;;;;;;;;;;5383153;26;7139;-90
2024/04/08 03:49:00;;;;;;;;;;;;;;;;;;;;;
2024/04/08 03:51:37;;;;;;;;;;;;;;;;;;5412631;26;7005;-91
2024/04/08 03:54:03;;;;;;;;;;;;;;;;;;5382951;26;7127;-90
2024/04/08 03:56:29;;;;;;;;;;;;;;;;;;5383380;26;8125;-90
2024/04/08 03:58:58;;;;;;;;;;;;;;;;;;5384129;26;7140;-91
2024/04/08 04:01:24;;;;;;;;;;;;;;;;;;5383201;26;7198;-91
2024/04/08 04:03:53;;;;;;;;;;;;;;;;;;5383749;26;7124;-91
2024/04/08 04:06:21;;;;;;;;;;;;;;;;;;5383709;26;7134;-90
2024/04/08 04:08:48;;;;;;;;;;;;;;;;;;5382817;26;7050;-89
2024/04/08 04:11:14;;;;;;;;;;;;;;;;;;5383089;26;7208;-90
2024/04/08 04:13:39;;;;;;;;;;;;;;;;;;5382717;26;7121;-90
2024/04/08 04:16:06;;;;;;;;;;;;;;;;;;5382335;26;7134;-90
2024/04/08 04:18:33;;;;;;;;;;;;;;;;;;5382940;26;7001;-91
2024/04/08 04:21:01;;;;;;;;;;;;;;;;;;5412707;26;7143;-91
2024/04/08 04:23:31;;;;;;;;;;;;;;;;;;5383029;26;7256;-91
2024/04/08 04:25:59;;;;;;;;;;;;;;;;;;5382901;26;7122;-91
2024/04/08 04:28:25;;;;;;;;;;;;;;;;;;5383145;26;7297;-91
2024/04/08 04:30:55;;;;;;;;;;;;;;;;;;5383185;26;7124;-89
2024/04/08 04:33:24;;;;;;;;;;;;;;;;;;5354225;26;6975;-89
2024/04/08 04:35:58;;;;;;;;;;;;;;;;;;5382895;26;7154;-89
2024/04/08 04:38:25;;;;;;;;;;;;;;;;;;5382710;26;7367;-90
2024/04/08 04:41:03;;;;;;;;;;;;;;;;;;5383089;26;6989;-90
2024/04/08 04:43:32;;;;;;;;;;;;;;;;;;5382638;26;7112;-89
2024/04/08 04:46:04;;;;;;;;;;;;;;;;;;5352662;26;7369;-90
2024/04/08 04:48:32;;;;;;;;;;;;;;;;;;5382645;26;7137;-89
2024/04/08 04:51:00;;;;;;;;;;;;;;;;;;5382731;26;7142;-90
2024/04/08 04:53:26;;;;;;;;;;;;;;;;;;5382377;26;7061;-90
2024/04/08 04:55:55;;;;;;;;;;;;;;;;;;5382683;26;7335;-90
2024/04/08 04:58:21;;;;;;;;;;;;;;;;;;5382411;26;7163;-90
2024/04/08 05:00:54;;;;;;;;;;;;;;;;;;5383748;26;7193;-89
2024/04/08 05:03:22;;;;;;;;;;;;;;;;;;5382392;26;7150;-90
2024/04/08 05:05:53;;;;;;;;;;;;;;;;;;5381759;26;7110;-90
2024/04/08 05:08:19;;;;;;;;;;;;;;;;;;5381669;26;7460;-90
2024/04/08 05:10:47;;;;;;;;;;;;;;;;;;5379956;26;7125;-90
2024/04/08 05:13:18;;;;;;;;;;;;;;;;;;5380169;26;7142;-89
2024/04/08 05:15:58;;;;;;;;;;;;;;;;;;5350684;26;7366;-89
2024/04/08 05:18:25;;;;;;;;;;;;;;;;;;5380770;26;7141;-89
2024/04/08 05:20:55;;;;;;;;;;;;;;;;;;5380533;26;7147;-93
2024/04/08 05:23:25;;;;;;;;;;;;;;;;;;5381861;26;7142;-89
2024/04/08 05:25:53;;;;;;;;;;;;;;;;;;5381026;26;7347;-89
2024/04/08 05:28:20;;;;;;;;;;;;;;;;;;5381160;26;7128;-89
2024/04/08 05:30:53;;;;;;;;;;;;;;;;;;5386330;26;7203;-90
2024/04/08 05:33:18;;;;;;;;;;;;;;;;;;5385020;26;7117;-90
2024/04/08 05:35:44;;;;;;;;;;;;;;;;;;5414197;26;7037;-90
2024/04/08 05:38:17;;;;;;;;;;;;;;;;;;5385076;26;7214;-89
2024/04/08 05:40:43;;;;;;;;;;;;;;;;;;5384556;26;7138;-89
2024/04/08 05:43:14;;;;;;;;;;;;;;;;;;5384485;26;7119;-90
2024/04/08 05:45:40;;;;;;;;;;;;;;;;;;5384442;26;7002;-89
2024/04/08 05:48:06;;;;;;;;;;;;;;;;;;5384616;26;7148;-90
2024/04/08 05:50:32;;;;;;;;;;;;;;;;;;5384625;26;7128;-89
2024/04/08 05:53:03;;;;;;;;;;;;;;;;;;5385060;26;7177;-88
2024/04/08 05:55:30;;;;;;;;;;;;;;;;;;5384331;26;7125;-89
2024/04/08 05:57:56;;;;;;;;;;;;;;;;;;5383867;26;7129;-89
2024/04/08 06:00:22;;;;;;;;;;;;;;;;;;5384585;26;7031;-90
2024/04/08 06:02:50;;;;;;;;;;;;;;;;;;5383244;26;7173;-88
2024/04/08 06:05:20;;;;;;;;;;;;;;;;;;5383495;26;7301;-89
2024/04/08 06:07:48;;;;;;;;;;;;;;;;;;5383718;26;7151;-88
2024/04/08 06:10:16;;;;;;;;;;;;;;;;;;5383419;26;7061;-88
2024/04/08 06:12:42;;;;;;;;;;;;;;;;;;5383236;26;7023;-89
2024/04/08 06:15:08;;;;;;;;;;;;;;;;;;5383284;26;7130;-87
2024/04/08 06:17:33;;;;;;;;;;;;;;;;;;5383457;26;7139;-88
2024/04/08 06:20:02;;;;;;;;;;;;;;;;;;5382926;26;6998;-88
2024/04/08 06:22:33;;;;;;;;;;;;;;;;;;5383869;26;7053;-89
2024/04/08 06:25:01;;;;;;;;;;;;;;;;;;5383422;26;7013;-89
2024/04/08 06:27:27;;;;;;;;;;;;;;;;;;5383630;26;7121;-88
2024/04/08 06:29:53;;;;;;;;;;;;;;;;;;5412898;26;7045;-88
2024/04/08 06:32:18;;;;;;;;;;;;;;;;;;5382817;26;7140;-89
2024/04/08 06:34:48;;;;;;;;;;;;;;;;;;5384048;26;7041;-88
2024/04/08 06:37:14;;;;;;;;;;;;;;;;;;5383253;26;7095;-88
2024/04/08 06:39:41;;;;;;;;;;;;;;;;;;5382538;26;8125;-88
2024/04/08 06:42:07;;;;;;;;;;;;;;;;;;5382401;26;7167;-89
2024/04/08 06:44:33;;;;;;;;;;;;;;;;;;5383314;26;7037;-88
2024/04/08 06:47:00;;;;;;;;;;;;;;;;;;5383228;26;7150;-89
2024/04/08 06:49:25;;;;;;;;;;;;;;;;;;5383238;26;7352;-89
2024/04/08 06:51:53;;;;;;;;;;;;;;;;;;5382790;26;7121;-88
2024/04/08 06:54:27;;;;;;;;;;;;;;;;;;5412051;26;7186;-89
2024/04/08 06:56:56;;;;;;;;;;;;;;;;;;5383111;26;7122;-89
2024/04/08 06:59:31;;;;;;;;;;;;;;;;;;5382614;26;7114;-88
2024/04/08 07:02:09;;;;;;;;;;;;;;;;;;5384891;26;7020;-88
2024/04/08 07:04:35;;;;;;;;;;;;;;;;;;5383250;26;6988;-90
2024/04/08 07:07:01;;;;;;;;;;;;;;;;;;5383093;26;7136;-88
2024/04/08 07:09:29;;;;;;;;;;;;;;;;;;5383469;26;7159;-90
2024/04/08 07:11:59;;;;;;;;;;;;;;;;;;5382571;26;7146;-90
2024/04/08 07:14:28;;;;;;;;;;;;;;;;;;5382628;26;7188;-89
2024/04/08 07:16:54;;;;;;;;;;;;;;;;;;5412156;26;8152;-88
2024/04/08 07:19:21;;;;;;;;;;;;;;;;;;5382664;26;7069;-89
2024/04/08 07:21:49;;;;;;;;;;;;;;;;;;5382874;26;7008;-88
2024/04/08 07:24:15;;;;;;;;;;;;;;;;;;5382668;26;7170;-87
2024/04/08 07:26:41;;;;;;;;;;;;;;;;;;5411926;26;7081;-88
2024/04/08 07:29:11;;;;;;;;;;;;;;;;;;5383240;26;7088;-88
2024/04/08 07:31:37;;;;;;;;;;;;;;;;;;5382109;26;7077;-88
2024/04/08 07:34:03;;;;;;;;;;;;;;;;;;5382514;26;7057;-88
2024/04/08 07:36:29;;;;;;;;;;;;;;;;;;5382434;26;7186;-88
2024/04/08 07:38:54;;;;;;;;;;;;;;;;;;5382264;26;7103;-88
2024/04/08 07:41:21;;;;;;;;;;;;;;;;;;5381949;26;7057;-89
2024/04/08 07:43:50;;;;;;;;;;;;;;;;;;5382100;26;7021;-88
2024/04/08 07:46:16;;;;;;;;;;;;;;;;;;5382534;26;7137;-89
2024/04/08 07:48:45;;;;;;;;;;;;;;;;;;5353174;26;6999;-88
2024/04/08 07:51:14;;;;;;;;;;;;;;;;;;5381174;26;7098;-89
2024/04/08 07:53:42;;;;;;;;;;;;;;;;;;5382336;26;7197;-89
2024/04/08 07:56:08;;;;;;;;;;;;;;;;;;5382118;26;7225;-88
2024/04/08 07:58:34;;;;;;;;;;;;;;;;;;5382603;26;7261;-88
2024/04/08 08:01:03;;;;;;;;;;;;;;;;;;5382661;26;7188;-89
2024/04/08 08:03:29;;;;;;;;;;;;;;;;;;5382346;26;7311;-89
2024/04/08 08:05:58;;;;;;;;;;;;;;;;;;5388476;26;7303;-89
2024/04/08 08:08:27;;;;;;;;;;;;;;;;;;5385813;26;7129;-91
2024/04/08 08:10:55;;;;;;;;;;;;;;;;;;5353896;26;7134;-89
2024/04/08 08:13:21;;;;;;;;;;;;;;;;;;5382285;26;7192;-88
2024/04/08 08:15:59;;;;;;;;;;;;;;;;;;5384123;26;7358;-88
2024/04/08 08:18:27;;;;;;;;;;;;;;;;;;5382505;26;7072;-88
2024/04/08 08:20:55;;;;;;;;;;;;;;;;;;5382157;26;7280;-89
2024/04/08 08:23:28;;;;;;;;;;;;;;;;;;5383994;26;6995;-89
2024/04/08 08:25:56;;;;;;;;;;;;;;;;;;5411337;26;7266;-91
2024/04/08 08:28:24;;;;;;;;;;;;;;;;;;5382383;26;7069;-90
2024/04/08 08:30:58;;;;;;;;;;;;;;;;;;5381345;26;7006;-89
2024/04/08 08:33:26;;;;;;;;;;;;;;;;;;5352923;26;7010;-91
2024/04/08 08:35:54;;;;;;;;;;;;;;;;;;5382356;26;7155;-91
2024/04/08 08:38:20;;;;;;;;;;;;;;;;;;5381772;26;7121;-91
2024/04/08 08:40:58;;;;;;;;;;;;;;;;;;5382179;26;7196;-90
2024/04/08 08:43:29;;;;;;;;;;;;;;;;;;5381760;26;7071;-91
2024/04/08 08:45:55;;;;;;;;;;;;;;;;;;5411556;26;7350;-90
2024/04/08 08:48:22;;;;;;;;;;;;;;;;;;5381766;26;7185;-88
2024/04/08 08:50:51;;;;;;;;;;;;;;;;;;5412641;26;7148;-88
2024/04/08 08:53:17;;;;;;;;;;;;;;;;;;5385312;26;6997;-90
2024/04/08 08:55:47;;;;;;;;;;;;;;;;;;5382909;26;7177;-95
2024/04/08 08:58:14;;;;;;;;;;;;;;;;;;5411573;26;7155;-90
2024/04/08 09:00:40;;;;;;;;;;;;;;;;;;5381380;26;7007;-89
2024/04/08 09:03:13;;;;;;;;;;;;;;;;;;5383072;26;6994;-89
2024/04/08 09:05:54;;;;;;;;;;;;;;;;;;;;;
2024/04/08 09:08:25;;;;;;;;;;;;;;;;;;5414675;26;7125;-88
2024/04/08 09:10:57;;;;;;;;;;;;;;;;;;5385830;26;7002;-89
2024/04/08 09:13:26;;;;;;;;;;;;;;;;;;5356303;26;7193;-90
2024/04/08 09:15:52;;;;;;;;;;;;;;;;;;5384616;26;7251;-90
2024/04/08 09:18:22;;;;;;;;;;;;;;;;;;5385002;26;7125;-92
2024/04/08 09:21:00;;;;;;;;;;;;;;;;;;;;;
2024/04/08 09:23:32;;;;;;;;;;;;;;;;;;5414283;26;7211;-90
2024/04/08 09:25:58;;;;;;;;;;;;;;;;;;5384678;26;7299;-91
2024/04/08 09:28:27;;;;;;;;;;;;;;;;;;5384822;26;6974;-91
2024/04/08 09:30:53;;;;;;;;;;;;;;;;;;5384932;26;7005;-92
2024/04/08 09:33:27;;;;;;;;;;;;;;;;;;5386734;26;7143;-91
2024/04/08 09:35:55;;;;;;;;;;;;;;;;;;5384276;26;7148;-91
2024/04/08 09:38:27;;;;;;;;;;;;;;;;;;5385130;26;7002;-93
2024/04/08 09:41:04;;;;;;;;;;;;;;;;;;5385004;26;6989;-92
2024/04/08 09:43:31;;;;;;;;;;;;;;;;;;5384708;26;7153;-90
2024/04/08 09:46:02;;;;;;;;;;;;;;;;;;5383778;26;6992;-91
2024/04/08 09:48:43;;;;;;;;;;;;;;;;;;5387479;26;6991;-90
2024/04/08 09:51:14;;;;;;;;;;;;;;;;;;5384519;26;6987;-92
2024/04/08 09:53:39;;;;;;;;;;;;;;;;;;5385239;26;7051;-91
2024/04/08 09:56:24;;;;;;;;;;;;;;;;;;5385464;26;7149;-90
2024/04/08 09:59:20;;;;;;;;;;;;;;;;;;5354726;26;6996;-90
2024/04/08 10:01:49;;;;;;;;;;;;;;;;;;5384131;26;7189;-92
2024/04/08 10:04:20;;;;;;;;;;;;;;;;;;5384384;26;7411;-91
2024/04/08 10:06:49;;;;;;;;;;;;;;;;;;5384338;26;7120;-89
2024/04/08 10:09:21;;;;;;;;;;;;;;;;;;5384097;26;7169;-90
2024/04/08 10:11:53;;;;;;;;;;;;;;;;;;5413754;26;7074;-90
2024/04/08 10:14:23;;;;;;;;;;;;;;;;;;5383224;26;7274;-89
2024/04/08 10:16:50;;;;;;;;;;;;;;;;;;5383875;26;7062;-88
2024/04/08 10:19:27;;;;;;;;;;;;;;;;;;5384264;26;7173;-89
2024/04/08 10:22:03;;;;;;;;;;;;;;;;;;5384100;26;7257;-92
2024/04/08 10:24:36;;;;;;;;;;;;;;;;;;5384259;26;7209;-90
2024/04/08 10:27:06;;;;;;;;;;;;;;;;;;5383525;26;7143;-90
2024/04/08 10:29:40;;;;;;;;;;;;;;;;;;5383706;26;7071;-89
2024/04/08 10:32:09;;;;;;;;;;;;;;;;;;5382835;26;7043;-89
2024/04/08 10:34:45;;;;;;;;;;;;;;;;;;5413441;26;7188;-90
2024/04/08 10:37:11;;;;;;;;;;;;;;;;;;5383882;26;7166;-89
2024/04/08 10:39:47;;;;;;;;;;;;;;;;;;5383293;26;7101;-89
2024/04/08 10:42:17;;;;;;;;;;;;;;;;;;5383130;26;7383;-88
2024/04/08 10:44:55;;;;;;;;;;;;;;;;;;5385945;26;7118;-89
2024/04/08 10:47:26;;;;;;;;;;;;;;;;;;5353937;26;7213;-88
2024/04/08 10:49:55;;;;;;;;;;;;;;;;;;5353747;26;6996;-89
2024/04/08 10:52:21;;;;;;;;;;;;;;;;;;5383827;26;7159;-88
2024/04/08 10:55:07;;;;;;;;;;;;;;;;;;;;;
2024/04/08 10:57:40;;;;;;;;;;;;;;;;;;5412353;26;7154;-92
2024/04/08 11:00:07;;;;;;;;;;;;;;;;;;5353463;26;7244;-88
2024/04/08 11:02:33;;;;;;;;;;;;;;;;;;5382019;26;8027;-88
2024/04/08 11:05:03;;;;;;;;;;;;;;;;;;5382319;26;7065;-88
2024/04/08 11:07:37;;;;;;;;;;;;;;;;;;5382632;26;7173;-88
2024/04/08 11:10:22;;;;;;;;;;;;;;;;;;5382307;26;7019;-88
2024/04/08 11:12:48;;;;;;;;;;;;;;;;;;5382226;26;6994;-87
2024/04/08 11:15:14;;;;;;;;;;;;;;;;;;5382278;26;7158;-88
2024/04/08 11:17:40;;;;;;;;;;;;;;;;;;5381765;26;7103;-87
2024/04/08 11:20:22;;;;;;;;;;;;;;;;;;5383054;26;7113;-88
2024/04/08 11:22:55;;;;;;;;;;;;;;;;;;5382413;26;7142;-88
2024/04/08 11:25:24;;;;;;;;;;;;;;;;;;5382939;26;6998;-87
2024/04/08 11:27:54;;;;;;;;;;;;;;;;;;5381340;26;7083;-87
2024/04/08 11:30:24;;;;;;;;;;;;;;;;;;5382970;26;7042;-88
2024/04/08 11:32:50;;;;;;;;;;;;;;;;;;5381706;26;7042;-89
2024/04/08 11:35:16;;;;;;;;;;;;;;;;;;5382206;26;7195;-89
2024/04/08 11:37:47;;;;;;;;;;;;;;;;;;5382325;26;7068;-90
2024/04/08 11:40:15;;;;;;;;;;;;;;;;;;5382566;26;7005;-88
2024/04/08 11:42:44;;;;;;;;;;;;;;;;;;5381600;26;6992;-89
2024/04/08 11:45:10;;;;;;;;;;;;;;;;;;5353357;26;7012;-89
2024/04/08 11:47:37;;;;;;;;;;;;;;;;;;5411529;26;7405;-89
2024/04/08 11:50:04;;;;;;;;;;;;;;;;;;5382233;26;7057;-90
2024/04/08 11:52:33;;;;;;;;;;;;;;;;;;5382881;26;7007;-90
2024/04/08 11:54:59;;;;;;;;;;;;;;;;;;5382805;26;7252;-90
2024/04/08 11:57:25;;;;;;;;;;;;;;;;;;5381995;26;7263;-89
2024/04/08 11:59:53;;;;;;;;;;;;;;;;;;5382223;26;7128;-88
2024/04/08 12:02:24;;;;;;;;;;;;;;;;;;5382347;26;7131;-89
2024/04/08 12:04:54;;;;;;;;;;;;;;;;;;5381847;26;7004;-88
2024/04/08 12:07:20;;;;;;;;;;;;;;;;;;5353303;26;7283;-89
2024/04/08 12:09:49;;;;;;;;;;;;;;;;;;5411734;26;7041;-91
2024/04/08 12:12:18;;;;;;;;;;;;;;;;;;5382367;26;7009;-93
2024/04/08 12:14:47;;;;;;;;;;;;;;;;;;5353832;26;7320;-90
2024/04/08 12:17:13;;;;;;;;;;;;;;;;;;5382373;26;7054;-90
2024/04/08 12:19:42;;;;;;;;;;;;;;;;;;5383232;26;7151;-92
2024/04/08 12:22:08;;;;;;;;;;;;;;;;;;5411978;26;6986;-91
2024/04/08 12:24:36;;;;;;;;;;;;;;;;;;5382604;26;7339;-90
2024/04/08 12:27:06;;;;;;;;;;;;;;;;;;5382456;26;7010;-93
2024/04/08 12:29:38;;;;;;;;;;;;;;;;;;5384015;26;7135;-90
2024/04/08 12:32:06;;;;;;;;;;;;;;;;;;5381994;26;7181;-89
2024/04/08 12:34:37;;;;;;;;;;;;;;;;;;5382510;26;7083;-92
2024/04/08 12:37:06;;;;;;;;;;;;;;;;;;5382028;26;7138;-90
2024/04/08 12:39:39;;;;;;;;;;;;;;;;;;5383042;26;7125;-90
2024/04/08 12:42:10;;;;;;;;;;;;;;;;;;5382718;26;7054;-92
2024/04/08 12:44:36;;;;;;;;;;;;;;;;;;5382671;26;7129;-89
2024/04/08 12:47:05;;;;;;;;;;;;;;;;;;5411437;26;7265;-91
2024/04/08 12:49:30;;;;;;;;;;;;;;;;;;5381777;26;7058;-88
2024/04/08 12:51:57;;;;;;;;;;;;;;;;;;5381098;26;7287;-90
2024/04/08 12:54:25;;;;;;;;;;;;;;;;;;5381471;26;7373;-88
2024/04/08 12:56:53;;;;;;;;;;;;;;;;;;5381037;26;7035;-89
2024/04/08 12:59:19;;;;;;;;;;;;;;;;;;5381377;26;7277;-89
2024/04/08 13:01:45;;;;;;;;;;;;;;;;;;5381751;26;7207;-90
2024/04/08 13:04:11;;;;;;;;;;;;;;;;;;5381883;26;7138;-91
2024/04/08 13:06:42;;;;;;;;;;;;;;;;;;5381697;26;7016;-89
2024/04/08 13:09:11;;;;;;;;;;;;;;;;;;5381977;26;7053;-89
2024/04/08 13:11:38;;;;;;;;;;;;;;;;;;5380475;26;7132;-88
2024/04/08 13:14:04;;;;;;;;;;;;;;;;;;5381207;26;7140;-92
2024/04/08 13:16:38;;;;;;;;;;;;;;;;;;5381758;26;7076;-89
2024/04/08 13:19:03;;;;;;;;;;;;;;;;;;5350890;26;7030;-89
2024/04/08 13:21:36;;;;;;;;;;;;;;;;;;5380850;26;6998;-88
2024/04/08 13:24:03;;;;;;;;;;;;;;;;;;5380554;26;7129;-89
2024/04/08 13:26:31;;;;;;;;;;;;;;;;;;5380404;26;7133;-89
2024/04/08 13:29:00;;;;;;;;;;;;;;;;;;5381081;26;7155;-89
2024/04/08 13:31:28;;;;;;;;;;;;;;;;;;5380366;26;7068;-89
2024/04/08 13:33:59;;;;;;;;;;;;;;;;;;5382172;26;7275;-89
2024/04/08 13:36:26;;;;;;;;;;;;;;;;;;5381028;26;7140;-90
2024/04/08 13:38:54;;;;;;;;;;;;;;;;;;5381206;26;7287;-91
2024/04/08 13:41:33;;;;;;;;;;;;;;;;;;5383647;26;7069;-91
2024/04/08 13:43:59;;;;;;;;;;;;;;;;;;5381687;26;7325;-92
2024/04/08 13:46:27;;;;;;;;;;;;;;;;;;5380626;26;7387;-93
2024/04/08 13:48:53;;;;;;;;;;;;;;;;;;5380394;26;7159;-89
2024/04/08 13:51:19;;;;;;;;;;;;;;;;;;5384111;26;7303;-91
2024/04/08 13:53:53;;;;;;;;;;;;;;;;;;5385777;26;7145;-91
2024/04/08 13:56:21;;;;;;;;;;;;;;;;;;5383936;26;7153;-90
2024/04/08 13:58:57;;;;;;;;;;;;;;;;;;5384218;26;7134;-89
2024/04/08 14:01:23;;;;;;;;;;;;;;;;;;5383436;26;7218;-91
2024/04/08 14:03:56;;;;;;;;;;;;;;;;;;5413571;26;7127;-90
2024/04/08 14:06:24;;;;;;;;;;;;;;;;;;5384082;26;6987;-92
2024/04/08 14:08:50;;;;;;;;;;;;;;;;;;5383638;26;7085;-88
2024/04/08 14:11:20;;;;;;;;;;;;;;;;;;5384310;26;7069;-89
2024/04/08 14:13:48;;;;;;;;;;;;;;;;;;5383899;26;7127;-88
2024/04/08 14:16:23;;;;;;;;;;;;;;;;;;5412554;26;6988;-91
2024/04/08 14:18:54;;;;;;;;;;;;;;;;;;5383571;26;7134;-91
2024/04/08 14:21:20;;;;;;;;;;;;;;;;;;5384059;26;7152;-89
2024/04/08 14:23:46;;;;;;;;;;;;;;;;;;5383416;26;7307;-88
2024/04/08 14:26:15;;;;;;;;;;;;;;;;;;5382723;26;7104;-90
2024/04/08 14:28:46;;;;;;;;;;;;;;;;;;5382922;26;7110;-89
2024/04/08 14:31:14;;;;;;;;;;;;;;;;;;5382634;26;7152;-90
2024/04/08 14:33:40;;;;;;;;;;;;;;;;;;5412638;26;7075;-90
2024/04/08 14:36:06;;;;;;;;;;;;;;;;;;5383392;26;6992;-88
2024/04/08 14:38:32;;;;;;;;;;;;;;;;;;5382947;26;7067;-89
2024/04/08 14:40:59;;;;;;;;;;;;;;;;;;5382883;26;7096;-86
2024/04/08 14:43:27;;;;;;;;;;;;;;;;;;5383127;26;7267;-88
2024/04/08 14:45:56;;;;;;;;;;;;;;;;;;5412368;26;7126;-88
2024/04/08 14:48:25;;;;;;;;;;;;;;;;;;5354034;26;7375;-89
2024/04/08 14:50:51;;;;;;;;;;;;;;;;;;5383339;26;6988;-90
2024/04/08 14:53:20;;;;;;;;;;;;;;;;;;5383428;26;7295;-88
2024/04/08 14:55:50;;;;;;;;;;;;;;;;;;5353944;26;7180;-88
2024/04/08 14:58:16;;;;;;;;;;;;;;;;;;5382713;26;6998;-92
2024/04/08 15:00:42;;;;;;;;;;;;;;;;;;5383551;26;7266;-90
2024/04/08 15:03:08;;;;;;;;;;;;;;;;;;5383179;26;7135;-90
2024/04/08 15:05:37;;;;;;;;;;;;;;;;;;5383257;26;7171;-89
2024/04/08 15:08:05;;;;;;;;;;;;;;;;;;5383309;26;7154;-92
2024/04/08 15:10:31;;;;;;;;;;;;;;;;;;5383873;26;7125;-92
2024/04/08 15:12:57;;;;;;;;;;;;;;;;;;5383325;26;7148;-91
2024/04/08 15:15:23;;;;;;;;;;;;;;;;;;5383881;26;7118;-92
2024/04/08 15:17:54;;;;;;;;;;;;;;;;;;5383079;26;7119;-89
2024/04/08 15:20:20;;;;;;;;;;;;;;;;;;5383110;26;7119;-90
2024/04/08 15:22:51;;;;;;;;;;;;;;;;;;5383102;26;7207;-90
2024/04/08 15:25:19;;;;;;;;;;;;;;;;;;5383987;26;7212;-88
2024/04/08 15:27:45;;;;;;;;;;;;;;;;;;5353278;26;6987;-91
2024/04/08 15:30:14;;;;;;;;;;;;;;;;;;5383162;26;7135;-91
2024/04/08 15:32:44;;;;;;;;;;;;;;;;;;5383058;26;7066;-89
2024/04/08 15:35:10;;;;;;;;;;;;;;;;;;5383162;26;7155;-90
2024/04/08 15:37:36;;;;;;;;;;;;;;;;;;5383314;26;7000;-88
2024/04/08 15:40:04;;;;;;;;;;;;;;;;;;5382155;26;7124;-89
2024/04/08 15:42:39;;;;;;;;;;;;;;;;;;5382811;26;7014;-87
2024/04/08 15:45:06;;;;;;;;;;;;;;;;;;5353735;26;7045;-89
2024/04/08 15:47:32;;;;;;;;;;;;;;;;;;5381889;26;7288;-88
2024/04/08 15:50:00;;;;;;;;;;;;;;;;;;5382443;26;7072;-90
2024/04/08 15:52:36;;;;;;;;;;;;;;;;;;5383041;26;7118;-88
2024/04/08 15:55:02;;;;;;;;;;;;;;;;;;5382218;26;7178;-88
2024/04/08 15:57:30;;;;;;;;;;;;;;;;;;5382070;26;7319;-87
2024/04/08 15:59:56;;;;;;;;;;;;;;;;;;5413520;26;7317;-89
2024/04/08 16:02:27;;;;;;;;;;;;;;;;;;5381537;26;7100;-88
2024/04/08 16:04:53;;;;;;;;;;;;;;;;;;5382132;26;7121;-88
2024/04/08 16:07:18;;;;;;;;;;;;;;;;;;5381541;26;7041;-88
2024/04/08 16:09:44;;;;;;;;;;;;;;;;;;5353401;26;7140;-90
2024/04/08 16:12:12;;;;;;;;;;;;;;;;;;5380705;26;7187;-87
2024/04/08 16:14:41;;;;;;;;;;;;;;;;;;5411217;26;7173;-90
2024/04/08 16:17:07;;;;;;;;;;;;;;;;;;5382016;26;7264;-89
2024/04/08 16:19:32;;;;;;;;;;;;;;;;;;5381642;26;7070;-87
2024/04/08 16:22:01;;;;;;;;;;;;;;;;;;5411088;26;7198;-87
2024/04/08 16:24:32;;;;;;;;;;;;;;;;;;5410278;26;7413;-87
2024/04/08 16:26:58;;;;;;;;;;;;;;;;;;5381496;26;6995;-87
2024/04/08 16:29:24;;;;;;;;;;;;;;;;;;5381806;26;7064;-87
2024/04/08 16:31:52;;;;;;;;;;;;;;;;;;5381670;26;6988;-87
2024/04/08 16:34:20;;;;;;;;;;;;;;;;;;5382316;26;7143;-87
2024/04/08 16:36:46;;;;;;;;;;;;;;;;;;5382120;26;7084;-89
2024/04/08 16:39:14;;;;;;;;;;;;;;;;;;5381969;26;7068;-88
2024/04/08 16:41:44;;;;;;;;;;;;;;;;;;5382258;26;6990;-87
2024/04/08 16:44:10;;;;;;;;;;;;;;;;;;5351985;26;7291;-88
2024/04/08 16:46:41;;;;;;;;;;;;;;;;;;5381668;26;7156;-86
2024/04/08 16:49:06;;;;;;;;;;;;;;;;;;5381315;26;8423;-86
2024/04/08 16:51:33;;;;;;;;;;;;;;;;;;5352212;26;7106;-86
2024/04/08 16:54:01;;;;;;;;;;;;;;;;;;5381487;26;7121;-87
2024/04/08 16:56:30;;;;;;;;;;;;;;;;;;5380600;26;7045;-86
2024/04/08 16:58:56;;;;;;;;;;;;;;;;;;5381156;26;7097;-87
2024/04/08 17:01:23;;;;;;;;;;;;;;;;;;5381345;26;7000;-86
2024/04/08 17:03:48;;;;;;;;;;;;;;;;;;5381319;26;7105;-87
2024/04/08 17:06:17;;;;;;;;;;;;;;;;;;5381316;26;7107;-86
2024/04/08 17:08:45;;;;;;;;;;;;;;;;;;5381201;26;7128;-86
2024/04/08 17:11:12;;;;;;;;;;;;;;;;;;5380720;26;7100;-86
2024/04/08 17:13:38;;;;;;;;;;;;;;;;;;5411690;26;7154;-86
2024/04/08 17:16:04;;;;;;;;;;;;;;;;;;5411527;26;7028;-86
2024/04/08 17:18:31;;;;;;;;;;;;;;;;;;5380796;26;7119;-86
2024/04/08 17:20:58;;;;;;;;;;;;;;;;;;5380753;26;7290;-87
2024/04/08 17:23:24;;;;;;;;;;;;;;;;;;5380830;26;6978;-87
2024/04/08 17:25:56;;;;;;;;;;;;;;;;;;5383519;26;7024;-86
2024/04/08 17:28:27;;;;;;;;;;;;;;;;;;5411964;26;7139;-87
2024/04/08 17:31:00;;;;;;;;;;;;;;;;;;5412654;26;7237;-86
2024/04/08 17:33:30;;;;;;;;;;;;;;;;;;5382033;26;7363;-87
2024/04/08 17:36:04;;;;;;;;;;;;;;;;;;5382453;26;7269;-87
2024/04/08 17:38:40;;;;;;;;;;;;;;;;;;5383932;26;7446;-87
2024/04/08 17:41:18;;;;;;;;;;;;;;;;;;5413602;26;7106;-87
2024/04/08 17:43:54;;;;;;;;;;;;;;;;;;5383467;26;8176;-87